sensor_id;sensor_type;location;lat;lon;timestamp;temperature;humidity
33717;DHT22;20046;50.746;7.072;2023-08-08T00:01:43;13.30;99.90
33717;DHT22;20046;50.746;7.072;2023-08-08T00:04:10;13.30;99.90
33717;DHT22;20046;50.746;7.072;2023-08-08T00:06:36;13.40;99.90
33717;DHT22;20046;50.746;7.072;2023-08-08T00:09:02;13.40;99.90
33717;DHT22;20046;50.746;7.072;2023-08-08T00:11:29;13.40;99.90
33717;DHT22;20046;50.746;7.072;2023-08-08T00:13:55;13.40;99.90
33717;DHT22;20046;50.746;7.072;2023-08-08T00:16:21;13.40;99.90
33717;DHT22;20046;50.746;7.072;2023-08-08T00:18:46;13.40;99.90
33717;DHT22;20046;50.746;7.072;2023-08-08T00:21:12;13.40;99.90
33717;DHT22;20046;50.746;7.072;2023-08-08T00:23:38;13.50;99.90
33717;DHT22;20046;50.746;7.072;2023-08-08T00:26:03;13.40;99.90
33717;DHT22;20046;50.746;7.072;2023-08-08T00:28:29;13.40;99.90
33717;DHT22;20046;50.746;7.072;2023-08-08T00:30:55;13.40;99.90
33717;DHT22;20046;50.746;7.072;2023-08-08T00:33:20;13.40;99.90
33717;DHT22;20046;50.746;7.072;2023-08-08T00:35:46;13.30;99.90
33717;DHT22;20046;50.746;7.072;2023-08-08T00:38:12;13.30;99.90
33717;DHT22;20046;50.746;7.072;2023-08-08T00:40:37;13.30;99.90
33717;DHT22;20046;50.746;7.072;2023-08-08T00:43:03;13.30;99.90
33717;DHT22;20046;50.746;7.072;2023-08-08T00:45:29;13.20;99.90
33717;DHT22;20046;50.746;7.072;2023-08-08T00:47:54;13.20;99.90
33717;DHT22;20046;50.746;7.072;2023-08-08T00:50:20;13.20;99.90
33717;DHT22;20046;50.746;7.072;2023-08-08T00:52:46;13.10;99.90
33717;DHT22;20046;50.746;7.072;2023-08-08T00:55:12;13.10;99.90
33717;DHT22;20046;50.746;7.072;2023-08-08T00:57:40;13.10;99.90
33717;DHT22;20046;50.746;7.072;2023-08-08T01:00:07;13.10;99.90
33717;DHT22;20046;50.746;7.072;2023-08-08T01:02:34;13.00;99.90
33717;DHT22;20046;50.746;7.072;2023-08-08T01:05:00;13.00;99.90
33717;DHT22;20046;50.746;7.072;2023-08-08T01:07:54;13.00;99.90
33717;DHT22;20046;50.746;7.072;2023-08-08T01:10:28;13.00;99.90
33717;DHT22;20046;50.746;7.072;2023-08-08T01:12:58;12.90;99.90
33717;DHT22;20046;50.746;7.072;2023-08-08T01:15:25;13.00;99.90
33717;DHT22;20046;50.746;7.072;2023-08-08T01:17:52;12.90;99.90
33717;DHT22;20046;50.746;7.072;2023-08-08T01:20:18;12.90;99.90
33717;DHT22;20046;50.746;7.072;2023-08-08T01:25:48;12.80;99.90
33717;DHT22;20046;50.746;7.072;2023-08-08T01:28:21;12.90;99.90
33717;DHT22;20046;50.746;7.072;2023-08-08T01:30:47;12.90;99.90
33717;DHT22;20046;50.746;7.072;2023-08-08T01:33:13;12.90;99.90
33717;DHT22;20046;50.746;7.072;2023-08-08T01:35:56;12.90;99.90
33717;DHT22;20046;50.746;7.072;2023-08-08T01:38:28;12.80;99.90
33717;DHT22;20046;50.746;7.072;2023-08-08T01:40:56;12.90;99.90
33717;DHT22;20046;50.746;7.072;2023-08-08T01:43:23;12.80;99.90
33717;DHT22;20046;50.746;7.072;2023-08-08T01:45:50;12.80;99.90
33717;DHT22;20046;50.746;7.072;2023-08-08T01:48:16;12.80;99.90
33717;DHT22;20046;50.746;7.072;2023-08-08T01:50:42;12.80;99.90
33717;DHT22;20046;50.746;7.072;2023-08-08T01:53:08;12.80;99.90
33717;DHT22;20046;50.746;7.072;2023-08-08T01:55:33;12.80;99.90
33717;DHT22;20046;50.746;7.072;2023-08-08T01:57:59;12.80;99.90
33717;DHT22;20046;50.746;7.072;2023-08-08T02:00:24;12.80;99.90
33717;DHT22;20046;50.746;7.072;2023-08-08T02:02:50;12.70;99.90
33717;DHT22;20046;50.746;7.072;2023-08-08T02:05:16;12.70;99.90
33717;DHT22;20046;50.746;7.072;2023-08-08T02:07:41;12.70;99.90
33717;DHT22;20046;50.746;7.072;2023-08-08T02:10:07;12.60;99.90
33717;DHT22;20046;50.746;7.072;2023-08-08T02:12:33;12.60;99.90
33717;DHT22;20046;50.746;7.072;2023-08-08T02:14:58;12.60;99.90
33717;DHT22;20046;50.746;7.072;2023-08-08T02:17:25;12.50;99.90
33717;DHT22;20046;50.746;7.072;2023-08-08T02:19:51;12.50;99.90
33717;DHT22;20046;50.746;7.072;2023-08-08T02:22:17;12.50;99.90
33717;DHT22;20046;50.746;7.072;2023-08-08T02:24:43;12.40;99.90
33717;DHT22;20046;50.746;7.072;2023-08-08T02:27:08;12.30;99.90
33717;DHT22;20046;50.746;7.072;2023-08-08T02:29:34;12.30;99.90
33717;DHT22;20046;50.746;7.072;2023-08-08T02:32:00;12.20;99.90
33717;DHT22;20046;50.746;7.072;2023-08-08T02:34:25;12.10;99.90
33717;DHT22;20046;50.746;7.072;2023-08-08T02:36:51;12.10;99.90
33717;DHT22;20046;50.746;7.072;2023-08-08T02:39:16;12.00;99.90
33717;DHT22;20046;50.746;7.072;2023-08-08T02:41:42;12.00;99.90
33717;DHT22;20046;50.746;7.072;2023-08-08T02:44:08;12.00;99.90
33717;DHT22;20046;50.746;7.072;2023-08-08T02:46:33;11.90;99.90
33717;DHT22;20046;50.746;7.072;2023-08-08T02:48:59;11.90;99.90
33717;DHT22;20046;50.746;7.072;2023-08-08T02:51:25;11.90;99.90
33717;DHT22;20046;50.746;7.072;2023-08-08T02:53:50;11.80;99.90
33717;DHT22;20046;50.746;7.072;2023-08-08T02:56:16;11.80;99.90
33717;DHT22;20046;50.746;7.072;2023-08-08T02:58:41;11.90;99.90
33717;DHT22;20046;50.746;7.072;2023-08-08T03:01:07;11.80;99.90
33717;DHT22;20046;50.746;7.072;2023-08-08T03:03:33;11.90;99.90
33717;DHT22;20046;50.746;7.072;2023-08-08T03:06:00;11.90;99.90
33717;DHT22;20046;50.746;7.072;2023-08-08T03:08:26;12.00;99.90
33717;DHT22;20046;50.746;7.072;2023-08-08T03:10:53;12.00;99.90
33717;DHT22;20046;50.746;7.072;2023-08-08T03:13:18;12.10;99.90
33717;DHT22;20046;50.746;7.072;2023-08-08T03:15:45;12.10;99.90
33717;DHT22;20046;50.746;7.072;2023-08-08T03:18:10;12.20;99.90
33717;DHT22;20046;50.746;7.072;2023-08-08T03:20:36;12.30;99.90
33717;DHT22;20046;50.746;7.072;2023-08-08T03:23:02;12.30;99.90
33717;DHT22;20046;50.746;7.072;2023-08-08T03:25:27;12.30;99.90
33717;DHT22;20046;50.746;7.072;2023-08-08T03:27:53;12.30;99.90
33717;DHT22;20046;50.746;7.072;2023-08-08T03:30:18;12.40;99.90
33717;DHT22;20046;50.746;7.072;2023-08-08T03:32:44;12.40;99.90
33717;DHT22;20046;50.746;7.072;2023-08-08T03:35:10;12.40;99.90
33717;DHT22;20046;50.746;7.072;2023-08-08T03:37:35;12.40;99.90
33717;DHT22;20046;50.746;7.072;2023-08-08T03:40:01;12.40;99.90
33717;DHT22;20046;50.746;7.072;2023-08-08T03:42:26;12.40;99.90
33717;DHT22;20046;50.746;7.072;2023-08-08T03:44:52;12.40;99.90
33717;DHT22;20046;50.746;7.072;2023-08-08T03:47:18;12.40;99.90
33717;DHT22;20046;50.746;7.072;2023-08-08T03:49:43;12.40;99.90
33717;DHT22;20046;50.746;7.072;2023-08-08T03:52:09;12.40;99.90
33717;DHT22;20046;50.746;7.072;2023-08-08T03:54:34;12.30;99.90
33717;DHT22;20046;50.746;7.072;2023-08-08T03:57:00;12.30;99.90
33717;DHT22;20046;50.746;7.072;2023-08-08T03:59:26;12.30;99.90
33717;DHT22;20046;50.746;7.072;2023-08-08T04:01:52;12.30;99.90
33717;DHT22;20046;50.746;7.072;2023-08-08T04:04:18;12.20;99.90
33717;DHT22;20046;50.746;7.072;2023-08-08T04:06:43;12.20;99.90
33717;DHT22;20046;50.746;7.072;2023-08-08T04:09:09;12.20;99.90
33717;DHT22;20046;50.746;7.072;2023-08-08T04:11:35;12.20;99.90
33717;DHT22;20046;50.746;7.072;2023-08-08T04:14:02;12.10;99.90
33717;DHT22;20046;50.746;7.072;2023-08-08T04:16:28;12.10;99.90
33717;DHT22;20046;50.746;7.072;2023-08-08T04:18:53;12.10;99.90
33717;DHT22;20046;50.746;7.072;2023-08-08T04:21:19;12.00;99.90
33717;DHT22;20046;50.746;7.072;2023-08-08T04:23:45;12.00;99.90
33717;DHT22;20046;50.746;7.072;2023-08-08T04:26:10;11.90;99.90
33717;DHT22;20046;50.746;7.072;2023-08-08T04:28:36;11.90;99.90
33717;DHT22;20046;50.746;7.072;2023-08-08T04:31:01;11.90;99.90
33717;DHT22;20046;50.746;7.072;2023-08-08T04:33:27;11.90;99.90
33717;DHT22;20046;50.746;7.072;2023-08-08T04:35:52;11.90;99.90
33717;DHT22;20046;50.746;7.072;2023-08-08T04:38:18;11.90;99.90
33717;DHT22;20046;50.746;7.072;2023-08-08T04:40:44;11.90;99.90
33717;DHT22;20046;50.746;7.072;2023-08-08T04:43:09;11.90;99.90
33717;DHT22;20046;50.746;7.072;2023-08-08T04:45:35;12.00;99.90
33717;DHT22;20046;50.746;7.072;2023-08-08T04:48:00;12.00;99.90
33717;DHT22;20046;50.746;7.072;2023-08-08T04:50:26;12.10;99.90
33717;DHT22;20046;50.746;7.072;2023-08-08T04:52:52;12.10;99.90
33717;DHT22;20046;50.746;7.072;2023-08-08T04:55:17;12.30;99.90
33717;DHT22;20046;50.746;7.072;2023-08-08T04:57:43;12.30;99.90
33717;DHT22;20046;50.746;7.072;2023-08-08T05:00:09;12.40;99.90
33717;DHT22;20046;50.746;7.072;2023-08-08T05:02:35;12.50;99.90
33717;DHT22;20046;50.746;7.072;2023-08-08T05:05:01;12.60;99.90
33717;DHT22;20046;50.746;7.072;2023-08-08T05:07:27;12.70;99.90
33717;DHT22;20046;50.746;7.072;2023-08-08T05:09:53;12.80;99.90
33717;DHT22;20046;50.746;7.072;2023-08-08T05:12:18;12.90;99.90
33717;DHT22;20046;50.746;7.072;2023-08-08T05:14:44;13.10;99.90
33717;DHT22;20046;50.746;7.072;2023-08-08T05:17:10;13.20;99.90
33717;DHT22;20046;50.746;7.072;2023-08-08T05:19:35;13.40;99.90
33717;DHT22;20046;50.746;7.072;2023-08-08T05:22:01;13.50;99.90
33717;DHT22;20046;50.746;7.072;2023-08-08T05:24:26;13.70;99.90
33717;DHT22;20046;50.746;7.072;2023-08-08T05:26:52;13.80;99.90
33717;DHT22;20046;50.746;7.072;2023-08-08T05:29:19;13.80;99.90
33717;DHT22;20046;50.746;7.072;2023-08-08T05:31:45;13.90;99.90
33717;DHT22;20046;50.746;7.072;2023-08-08T05:34:11;14.10;99.90
33717;DHT22;20046;50.746;7.072;2023-08-08T05:36:36;14.10;99.90
33717;DHT22;20046;50.746;7.072;2023-08-08T05:39:03;14.30;99.90
33717;DHT22;20046;50.746;7.072;2023-08-08T05:41:29;14.40;99.90
33717;DHT22;20046;50.746;7.072;2023-08-08T05:43:54;14.50;99.90
33717;DHT22;20046;50.746;7.072;2023-08-08T05:46:20;14.70;99.90
33717;DHT22;20046;50.746;7.072;2023-08-08T05:48:46;14.60;99.90
33717;DHT22;20046;50.746;7.072;2023-08-08T05:51:12;14.60;99.90
33717;DHT22;20046;50.746;7.072;2023-08-08T05:53:37;14.70;99.90
33717;DHT22;20046;50.746;7.072;2023-08-08T05:56:03;14.70;99.90
33717;DHT22;20046;50.746;7.072;2023-08-08T05:58:29;14.70;99.90
33717;DHT22;20046;50.746;7.072;2023-08-08T06:00:55;14.70;99.90
33717;DHT22;20046;50.746;7.072;2023-08-08T06:03:21;14.80;99.90
33717;DHT22;20046;50.746;7.072;2023-08-08T06:05:46;15.00;99.90
33717;DHT22;20046;50.746;7.072;2023-08-08T06:08:12;15.10;99.90
33717;DHT22;20046;50.746;7.072;2023-08-08T06:10:40;15.20;99.90
33717;DHT22;20046;50.746;7.072;2023-08-08T06:13:05;15.20;99.90
33717;DHT22;20046;50.746;7.072;2023-08-08T06:15:31;15.20;99.90
33717;DHT22;20046;50.746;7.072;2023-08-08T06:17:57;15.10;99.90
33717;DHT22;20046;50.746;7.072;2023-08-08T06:20:22;15.00;99.90
33717;DHT22;20046;50.746;7.072;2023-08-08T06:22:48;15.00;99.90
33717;DHT22;20046;50.746;7.072;2023-08-08T06:25:14;15.00;99.90
33717;DHT22;20046;50.746;7.072;2023-08-08T06:27:40;15.00;99.90
33717;DHT22;20046;50.746;7.072;2023-08-08T06:30:06;15.00;99.90
33717;DHT22;20046;50.746;7.072;2023-08-08T06:32:34;15.10;99.90
33717;DHT22;20046;50.746;7.072;2023-08-08T06:34:59;15.10;99.90
33717;DHT22;20046;50.746;7.072;2023-08-08T06:37:25;15.20;99.90
33717;DHT22;20046;50.746;7.072;2023-08-08T06:39:51;15.30;99.90
33717;DHT22;20046;50.746;7.072;2023-08-08T06:42:16;15.30;99.90
33717;DHT22;20046;50.746;7.072;2023-08-08T06:44:43;15.40;99.90
33717;DHT22;20046;50.746;7.072;2023-08-08T06:47:09;15.40;99.90
33717;DHT22;20046;50.746;7.072;2023-08-08T06:49:35;15.40;99.90
33717;DHT22;20046;50.746;7.072;2023-08-08T06:52:00;15.50;99.90
33717;DHT22;20046;50.746;7.072;2023-08-08T06:54:26;15.70;99.90
33717;DHT22;20046;50.746;7.072;2023-08-08T06:56:53;16.00;99.90
33717;DHT22;20046;50.746;7.072;2023-08-08T06:59:21;16.10;99.90
33717;DHT22;20046;50.746;7.072;2023-08-08T07:01:48;16.20;99.90
33717;DHT22;20046;50.746;7.072;2023-08-08T07:04:14;16.30;99.90
33717;DHT22;20046;50.746;7.072;2023-08-08T07:06:39;16.40;99.90
33717;DHT22;20046;50.746;7.072;2023-08-08T07:09:05;16.80;99.90
33717;DHT22;20046;50.746;7.072;2023-08-08T07:11:31;17.30;99.90
33717;DHT22;20046;50.746;7.072;2023-08-08T07:13:57;17.50;99.90
33717;DHT22;20046;50.746;7.072;2023-08-08T07:16:22;18.00;99.90
33717;DHT22;20046;50.746;7.072;2023-08-08T07:18:48;18.30;99.90
33717;DHT22;20046;50.746;7.072;2023-08-08T07:21:13;18.30;99.90
33717;DHT22;20046;50.746;7.072;2023-08-08T07:23:40;18.60;99.90
33717;DHT22;20046;50.746;7.072;2023-08-08T07:26:06;19.00;99.90
33717;DHT22;20046;50.746;7.072;2023-08-08T07:28:31;19.50;99.90
33717;DHT22;20046;50.746;7.072;2023-08-08T07:30:58;19.70;99.90
33717;DHT22;20046;50.746;7.072;2023-08-08T07:33:23;19.60;99.90
33717;DHT22;20046;50.746;7.072;2023-08-08T07:35:49;19.40;99.90
33717;DHT22;20046;50.746;7.072;2023-08-08T07:38:15;19.20;99.90
33717;DHT22;20046;50.746;7.072;2023-08-08T07:40:41;19.10;99.90
33717;DHT22;20046;50.746;7.072;2023-08-08T07:43:07;19.00;99.90
33717;DHT22;20046;50.746;7.072;2023-08-08T07:45:32;18.90;99.90
33717;DHT22;20046;50.746;7.072;2023-08-08T07:47:58;18.80;99.90
33717;DHT22;20046;50.746;7.072;2023-08-08T07:50:24;18.90;99.90
33717;DHT22;20046;50.746;7.072;2023-08-08T07:52:49;18.90;99.90
33717;DHT22;20046;50.746;7.072;2023-08-08T07:55:15;19.10;99.90
33717;DHT22;20046;50.746;7.072;2023-08-08T07:57:40;19.20;99.90
33717;DHT22;20046;50.746;7.072;2023-08-08T08:00:06;19.30;99.90
33717;DHT22;20046;50.746;7.072;2023-08-08T08:02:42;19.40;99.90
33717;DHT22;20046;50.746;7.072;2023-08-08T08:05:09;19.30;99.90
33717;DHT22;20046;50.746;7.072;2023-08-08T08:07:35;19.20;99.90
33717;DHT22;20046;50.746;7.072;2023-08-08T08:10:07;19.10;99.90
33717;DHT22;20046;50.746;7.072;2023-08-08T08:12:34;18.90;99.90
33717;DHT22;20046;50.746;7.072;2023-08-08T08:15:01;18.80;99.90
33717;DHT22;20046;50.746;7.072;2023-08-08T08:17:27;18.80;99.90
33717;DHT22;20046;50.746;7.072;2023-08-08T08:19:55;18.90;99.90
33717;DHT22;20046;50.746;7.072;2023-08-08T08:22:21;19.00;99.90
33717;DHT22;20046;50.746;7.072;2023-08-08T08:24:47;19.20;99.90
33717;DHT22;20046;50.746;7.072;2023-08-08T08:27:13;19.40;99.90
33717;DHT22;20046;50.746;7.072;2023-08-08T08:29:39;19.70;99.90
33717;DHT22;20046;50.746;7.072;2023-08-08T08:32:05;20.00;99.90
33717;DHT22;20046;50.746;7.072;2023-08-08T08:34:31;20.30;99.90
33717;DHT22;20046;50.746;7.072;2023-08-08T08:36:57;20.80;99.90
33717;DHT22;20046;50.746;7.072;2023-08-08T08:39:22;21.30;99.90
33717;DHT22;20046;50.746;7.072;2023-08-08T08:41:50;21.60;99.90
33717;DHT22;20046;50.746;7.072;2023-08-08T08:44:21;22.10;99.90
33717;DHT22;20046;50.746;7.072;2023-08-08T08:46:48;22.30;99.90
33717;DHT22;20046;50.746;7.072;2023-08-08T08:49:17;22.80;99.90
33717;DHT22;20046;50.746;7.072;2023-08-08T08:51:44;23.20;99.90
33717;DHT22;20046;50.746;7.072;2023-08-08T08:54:10;23.30;99.90
33717;DHT22;20046;50.746;7.072;2023-08-08T08:56:36;23.40;99.90
33717;DHT22;20046;50.746;7.072;2023-08-08T08:59:03;23.50;99.90
33717;DHT22;20046;50.746;7.072;2023-08-08T09:01:28;23.60;99.90
33717;DHT22;20046;50.746;7.072;2023-08-08T09:03:54;23.70;99.90
33717;DHT22;20046;50.746;7.072;2023-08-08T09:06:22;23.80;99.90
33717;DHT22;20046;50.746;7.072;2023-08-08T09:08:48;23.90;99.90
33717;DHT22;20046;50.746;7.072;2023-08-08T09:11:14;23.80;99.90
33717;DHT22;20046;50.746;7.072;2023-08-08T09:13:40;23.70;99.90
33717;DHT22;20046;50.746;7.072;2023-08-08T09:16:06;23.70;99.90
33717;DHT22;20046;50.746;7.072;2023-08-08T09:18:32;23.70;99.90
33717;DHT22;20046;50.746;7.072;2023-08-08T09:20:59;23.50;99.90
33717;DHT22;20046;50.746;7.072;2023-08-08T09:23:25;23.40;99.90
33717;DHT22;20046;50.746;7.072;2023-08-08T09:25:51;23.60;99.90
33717;DHT22;20046;50.746;7.072;2023-08-08T09:28:17;23.70;99.80
33717;DHT22;20046;50.746;7.072;2023-08-08T09:30:43;24.10;99.90
33717;DHT22;20046;50.746;7.072;2023-08-08T09:33:11;23.90;98.90
33717;DHT22;20046;50.746;7.072;2023-08-08T09:35:40;23.80;99.30
33717;DHT22;20046;50.746;7.072;2023-08-08T09:38:06;23.50;99.00
33717;DHT22;20046;50.746;7.072;2023-08-08T09:40:32;23.30;98.60
33717;DHT22;20046;50.746;7.072;2023-08-08T09:42:58;22.80;98.70
33717;DHT22;20046;50.746;7.072;2023-08-08T09:45:25;22.40;99.50
33717;DHT22;20046;50.746;7.072;2023-08-08T09:47:51;22.40;99.20
33717;DHT22;20046;50.746;7.072;2023-08-08T09:50:20;22.50;99.50
33717;DHT22;20046;50.746;7.072;2023-08-08T09:52:47;22.50;99.30
33717;DHT22;20046;50.746;7.072;2023-08-08T09:55:14;22.40;99.50
33717;DHT22;20046;50.746;7.072;2023-08-08T09:57:40;22.30;98.60
33717;DHT22;20046;50.746;7.072;2023-08-08T10:00:08;22.30;99.30
33717;DHT22;20046;50.746;7.072;2023-08-08T10:02:43;22.40;99.90
33717;DHT22;20046;50.746;7.072;2023-08-08T10:05:10;22.50;99.50
33717;DHT22;20046;50.746;7.072;2023-08-08T10:07:42;22.40;98.80
33717;DHT22;20046;50.746;7.072;2023-08-08T10:10:09;22.30;99.10
33717;DHT22;20046;50.746;7.072;2023-08-08T10:12:44;22.10;99.50
33717;DHT22;20046;50.746;7.072;2023-08-08T10:15:10;22.00;99.30
33717;DHT22;20046;50.746;7.072;2023-08-08T10:17:41;22.10;99.70
33717;DHT22;20046;50.746;7.072;2023-08-08T10:20:09;22.20;99.00
33717;DHT22;20046;50.746;7.072;2023-08-08T10:22:43;22.20;98.50
33717;DHT22;20046;50.746;7.072;2023-08-08T10:25:24;22.30;98.70
33717;DHT22;20046;50.746;7.072;2023-08-08T10:28:05;22.30;98.40
33717;DHT22;20046;50.746;7.072;2023-08-08T10:30:42;22.40;98.60
33717;DHT22;20046;50.746;7.072;2023-08-08T10:33:25;22.40;97.90
33717;DHT22;20046;50.746;7.072;2023-08-08T10:36:03;22.80;98.60
33717;DHT22;20046;50.746;7.072;2023-08-08T10:38:48;23.10;97.80
33717;DHT22;20046;50.746;7.072;2023-08-08T10:41:21;23.20;97.80
33717;DHT22;20046;50.746;7.072;2023-08-08T10:43:52;23.60;98.40
33717;DHT22;20046;50.746;7.072;2023-08-08T10:46:29;24.00;96.80
33717;DHT22;20046;50.746;7.072;2023-08-08T10:49:00;24.70;97.00
33717;DHT22;20046;50.746;7.072;2023-08-08T10:54:06;25.50;94.20
33717;DHT22;20046;50.746;7.072;2023-08-08T10:56:35;25.10;94.70
33717;DHT22;20046;50.746;7.072;2023-08-08T10:59:13;24.80;95.10
33717;DHT22;20046;50.746;7.072;2023-08-08T11:01:40;24.50;94.90
33717;DHT22;20046;50.746;7.072;2023-08-08T11:04:07;24.60;95.30
33717;DHT22;20046;50.746;7.072;2023-08-08T11:06:33;24.40;94.80
33717;DHT22;20046;50.746;7.072;2023-08-08T11:09:01;24.10;94.90
33717;DHT22;20046;50.746;7.072;2023-08-08T11:11:26;23.70;95.80
33717;DHT22;20046;50.746;7.072;2023-08-08T11:13:52;23.40;95.80
33717;DHT22;20046;50.746;7.072;2023-08-08T11:16:19;23.40;96.60
33717;DHT22;20046;50.746;7.072;2023-08-08T11:18:45;23.40;95.90
33717;DHT22;20046;50.746;7.072;2023-08-08T11:21:11;23.20;95.20
33717;DHT22;20046;50.746;7.072;2023-08-08T11:23:38;23.00;95.00
33717;DHT22;20046;50.746;7.072;2023-08-08T11:26:04;22.70;95.40
33717;DHT22;20046;50.746;7.072;2023-08-08T11:28:32;22.50;95.50
33717;DHT22;20046;50.746;7.072;2023-08-08T11:30:59;22.20;95.00
33717;DHT22;20046;50.746;7.072;2023-08-08T11:33:25;22.00;95.60
33717;DHT22;20046;50.746;7.072;2023-08-08T11:35:52;21.60;96.00
33717;DHT22;20046;50.746;7.072;2023-08-08T11:38:18;21.50;96.70
33717;DHT22;20046;50.746;7.072;2023-08-08T11:40:45;21.40;97.60
33717;DHT22;20046;50.746;7.072;2023-08-08T11:43:11;21.30;97.50
33717;DHT22;20046;50.746;7.072;2023-08-08T11:45:39;21.20;97.70
33717;DHT22;20046;50.746;7.072;2023-08-08T11:48:08;21.20;98.00
33717;DHT22;20046;50.746;7.072;2023-08-08T11:50:37;21.30;98.30
33717;DHT22;20046;50.746;7.072;2023-08-08T11:53:07;21.50;98.20
33717;DHT22;20046;50.746;7.072;2023-08-08T11:55:34;21.80;98.60
33717;DHT22;20046;50.746;7.072;2023-08-08T11:58:01;21.90;98.00
33717;DHT22;20046;50.746;7.072;2023-08-08T12:00:29;21.90;97.80
33717;DHT22;20046;50.746;7.072;2023-08-08T12:03:01;21.80;97.90
33717;DHT22;20046;50.746;7.072;2023-08-08T12:05:30;21.50;97.10
33717;DHT22;20046;50.746;7.072;2023-08-08T12:08:05;21.40;97.30
33717;DHT22;20046;50.746;7.072;2023-08-08T12:10:32;21.30;97.30
33717;DHT22;20046;50.746;7.072;2023-08-08T12:12:58;21.20;97.70
33717;DHT22;20046;50.746;7.072;2023-08-08T12:15:29;21.10;98.00
33717;DHT22;20046;50.746;7.072;2023-08-08T12:17:58;21.10;98.10
33717;DHT22;20046;50.746;7.072;2023-08-08T12:20:28;20.90;98.50
33717;DHT22;20046;50.746;7.072;2023-08-08T12:22:57;20.70;99.30
33717;DHT22;20046;50.746;7.072;2023-08-08T12:25:24;20.50;99.50
33717;DHT22;20046;50.746;7.072;2023-08-08T12:27:50;20.40;99.80
33717;DHT22;20046;50.746;7.072;2023-08-08T12:30:17;20.30;99.90
33717;DHT22;20046;50.746;7.072;2023-08-08T12:32:43;20.80;99.90
33717;DHT22;20046;50.746;7.072;2023-08-08T12:35:10;23.20;99.50
33717;DHT22;20046;50.746;7.072;2023-08-08T12:37:36;24.40;97.90
33717;DHT22;20046;50.746;7.072;2023-08-08T12:40:05;24.60;97.00
33717;DHT22;20046;50.746;7.072;2023-08-08T12:42:32;24.70;96.30
33717;DHT22;20046;50.746;7.072;2023-08-08T12:44:59;24.10;96.10
33717;DHT22;20046;50.746;7.072;2023-08-08T12:47:25;23.40;97.10
33717;DHT22;20046;50.746;7.072;2023-08-08T12:49:52;22.70;97.60
33717;DHT22;20046;50.746;7.072;2023-08-08T12:52:19;22.10;97.90
33717;DHT22;20046;50.746;7.072;2023-08-08T12:54:45;21.50;98.90
33717;DHT22;20046;50.746;7.072;2023-08-08T12:57:12;21.00;99.60
33717;DHT22;20046;50.746;7.072;2023-08-08T12:59:39;20.60;99.90
33717;DHT22;20046;50.746;7.072;2023-08-08T13:02:06;20.20;99.90
33717;DHT22;20046;50.746;7.072;2023-08-08T13:04:32;20.00;99.90
33717;DHT22;20046;50.746;7.072;2023-08-08T13:07:00;19.90;99.90
33717;DHT22;20046;50.746;7.072;2023-08-08T13:09:26;19.80;99.90
33717;DHT22;20046;50.746;7.072;2023-08-08T13:11:52;19.70;99.90
33717;DHT22;20046;50.746;7.072;2023-08-08T13:14:21;19.60;99.90
33717;DHT22;20046;50.746;7.072;2023-08-08T13:16:48;19.50;99.90
33717;DHT22;20046;50.746;7.072;2023-08-08T13:19:15;19.50;99.90
33717;DHT22;20046;50.746;7.072;2023-08-08T13:21:45;19.40;99.90
33717;DHT22;20046;50.746;7.072;2023-08-08T13:24:12;19.40;99.90
33717;DHT22;20046;50.746;7.072;2023-08-08T13:26:40;19.40;99.90
33717;DHT22;20046;50.746;7.072;2023-08-08T13:29:09;19.30;99.90
33717;DHT22;20046;50.746;7.072;2023-08-08T13:31:35;19.30;99.90
33717;DHT22;20046;50.746;7.072;2023-08-08T13:34:02;19.30;99.90
33717;DHT22;20046;50.746;7.072;2023-08-08T13:36:29;19.30;99.90
33717;DHT22;20046;50.746;7.072;2023-08-08T13:38:57;19.40;99.90
33717;DHT22;20046;50.746;7.072;2023-08-08T13:41:26;19.50;99.90
33717;DHT22;20046;50.746;7.072;2023-08-08T13:43:52;19.60;99.90
33717;DHT22;20046;50.746;7.072;2023-08-08T13:46:19;19.70;99.90
33717;DHT22;20046;50.746;7.072;2023-08-08T13:48:45;19.70;99.90
33717;DHT22;20046;50.746;7.072;2023-08-08T13:51:12;19.70;99.90
33717;DHT22;20046;50.746;7.072;2023-08-08T13:53:39;19.60;99.90
33717;DHT22;20046;50.746;7.072;2023-08-08T13:56:05;19.50;99.90
33717;DHT22;20046;50.746;7.072;2023-08-08T13:58:32;19.40;99.90
33717;DHT22;20046;50.746;7.072;2023-08-08T14:00:59;19.20;99.90
33717;DHT22;20046;50.746;7.072;2023-08-08T14:03:26;19.10;99.90
33717;DHT22;20046;50.746;7.072;2023-08-08T14:05:53;19.00;99.90
33717;DHT22;20046;50.746;7.072;2023-08-08T14:08:20;19.00;99.90
33717;DHT22;20046;50.746;7.072;2023-08-08T14:10:46;19.00;99.90
33717;DHT22;20046;50.746;7.072;2023-08-08T14:13:13;19.00;99.90
33717;DHT22;20046;50.746;7.072;2023-08-08T14:15:40;19.20;99.90
33717;DHT22;20046;50.746;7.072;2023-08-08T14:18:07;19.60;99.90
33717;DHT22;20046;50.746;7.072;2023-08-08T14:20:34;20.00;99.90
33717;DHT22;20046;50.746;7.072;2023-08-08T14:23:00;20.20;99.90
33717;DHT22;20046;50.746;7.072;2023-08-08T14:25:29;20.40;99.90
33717;DHT22;20046;50.746;7.072;2023-08-08T14:27:56;20.20;99.90
33717;DHT22;20046;50.746;7.072;2023-08-08T14:30:26;20.00;99.90
33717;DHT22;20046;50.746;7.072;2023-08-08T14:32:54;19.60;99.90
33717;DHT22;20046;50.746;7.072;2023-08-08T14:35:22;19.40;99.90
33717;DHT22;20046;50.746;7.072;2023-08-08T14:37:48;19.20;99.90
33717;DHT22;20046;50.746;7.072;2023-08-08T14:40:15;19.10;99.90
33717;DHT22;20046;50.746;7.072;2023-08-08T14:42:42;19.00;99.90
33717;DHT22;20046;50.746;7.072;2023-08-08T14:45:08;18.90;99.90
33717;DHT22;20046;50.746;7.072;2023-08-08T14:47:35;18.90;99.90
33717;DHT22;20046;50.746;7.072;2023-08-08T14:50:02;19.00;99.90
33717;DHT22;20046;50.746;7.072;2023-08-08T14:52:30;19.20;99.90
33717;DHT22;20046;50.746;7.072;2023-08-08T14:54:56;19.40;99.90
33717;DHT22;20046;50.746;7.072;2023-08-08T14:57:23;19.60;99.90
33717;DHT22;20046;50.746;7.072;2023-08-08T14:59:51;19.90;99.90
33717;DHT22;20046;50.746;7.072;2023-08-08T15:02:18;20.10;99.90
33717;DHT22;20046;50.746;7.072;2023-08-08T15:04:46;20.20;99.90
33717;DHT22;20046;50.746;7.072;2023-08-08T15:07:15;20.30;99.90
33717;DHT22;20046;50.746;7.072;2023-08-08T15:09:41;20.20;99.90
33717;DHT22;20046;50.746;7.072;2023-08-08T15:12:08;20.20;99.90
33717;DHT22;20046;50.746;7.072;2023-08-08T15:14:35;20.00;99.90
33717;DHT22;20046;50.746;7.072;2023-08-08T15:17:02;19.90;99.90
33717;DHT22;20046;50.746;7.072;2023-08-08T15:19:31;19.80;99.90
33717;DHT22;20046;50.746;7.072;2023-08-08T15:21:58;20.10;99.90
33717;DHT22;20046;50.746;7.072;2023-08-08T15:24:25;20.30;99.90
33717;DHT22;20046;50.746;7.072;2023-08-08T15:26:53;20.20;99.90
33717;DHT22;20046;50.746;7.072;2023-08-08T15:29:21;20.10;99.90
33717;DHT22;20046;50.746;7.072;2023-08-08T15:31:48;20.00;99.90
33717;DHT22;20046;50.746;7.072;2023-08-08T15:34:14;20.40;99.90